Terminal Aerodrome Forecast
Issued by NWS

Home | Current Version | Previous Version | Text Only | Print | Product List | Glossary On
Versions: 1 2 3 4 5 6 7 8 9 10 11 12
992
FTUS42 KTAE 280541
TAFVLD
TAF
KVLD 280541Z 2806/2906 05004KT P6SM SCT250
     FM281600 08009KT P6SM VCTS BKN050CB
     FM282300 07003KT P6SM SCT250=

USA.gov is the U.S. government's official web portal to all federal, state and local government web resources and services.